sensor_id;sensor_type;location;lat;lon;timestamp;P1;durP1;ratioP1;P2;durP2;ratioP2
76752;SDS011;65687;51.308;16.916;2023-04-25T00:01:20;3.90;;;1.90;;
76752;SDS011;65687;51.308;16.916;2023-04-25T00:06:25;2.50;;;1.30;;
76752;SDS011;65687;51.308;16.916;2023-04-25T00:11:29;1.30;;;1.20;;
76752;SDS011;65687;51.308;16.916;2023-04-25T00:16:32;1.70;;;0.90;;
76752;SDS011;65687;51.308;16.916;2023-04-25T00:21:35;2.20;;;1.20;;
76752;SDS011;65687;51.308;16.916;2023-04-25T00:26:38;3.50;;;1.20;;
76752;SDS011;65687;51.308;16.916;2023-04-25T00:31:40;1.60;;;1.10;;
76752;SDS011;65687;51.308;16.916;2023-04-25T00:36:42;1.30;;;1.00;;
76752;SDS011;65687;51.308;16.916;2023-04-25T00:41:43;3.30;;;1.20;;
76752;SDS011;65687;51.308;16.916;2023-04-25T00:46:49;2.30;;;1.10;;
76752;SDS011;65687;51.308;16.916;2023-04-25T00:51:51;1.40;;;1.00;;
76752;SDS011;65687;51.308;16.916;2023-04-25T00:56:55;2.30;;;1.40;;
76752;SDS011;65687;51.308;16.916;2023-04-25T01:01:57;1.80;;;1.30;;
76752;SDS011;65687;51.308;16.916;2023-04-25T01:06:59;3.40;;;1.40;;
76752;SDS011;65687;51.308;16.916;2023-04-25T01:12:01;2.50;;;1.10;;
76752;SDS011;65687;51.308;16.916;2023-04-25T01:17:04;2.60;;;1.40;;
76752;SDS011;65687;51.308;16.916;2023-04-25T01:22:05;2.60;;;1.20;;
76752;SDS011;65687;51.308;16.916;2023-04-25T01:27:08;1.70;;;1.20;;
76752;SDS011;65687;51.308;16.916;2023-04-25T01:32:10;1.30;;;1.10;;
76752;SDS011;65687;51.308;16.916;2023-04-25T01:37:12;2.10;;;1.40;;
76752;SDS011;65687;51.308;16.916;2023-04-25T01:42:13;2.30;;;1.30;;
76752;SDS011;65687;51.308;16.916;2023-04-25T01:47:15;2.40;;;1.60;;
76752;SDS011;65687;51.308;16.916;2023-04-25T01:52:17;2.70;;;1.70;;
76752;SDS011;65687;51.308;16.916;2023-04-25T01:57:18;2.00;;;1.50;;
76752;SDS011;65687;51.308;16.916;2023-04-25T02:02:21;2.60;;;1.70;;
76752;SDS011;65687;51.308;16.916;2023-04-25T02:07:22;2.50;;;1.80;;
76752;SDS011;65687;51.308;16.916;2023-04-25T02:12:24;2.70;;;1.80;;
76752;SDS011;65687;51.308;16.916;2023-04-25T02:17:27;2.30;;;1.90;;
76752;SDS011;65687;51.308;16.916;2023-04-25T02:22:29;4.30;;;1.90;;
76752;SDS011;65687;51.308;16.916;2023-04-25T02:27:31;4.80;;;2.30;;
76752;SDS011;65687;51.308;16.916;2023-04-25T02:32:33;2.60;;;2.10;;
76752;SDS011;65687;51.308;16.916;2023-04-25T02:37:38;2.60;;;1.80;;
76752;SDS011;65687;51.308;16.916;2023-04-25T02:42:40;2.60;;;2.40;;
76752;SDS011;65687;51.308;16.916;2023-04-25T02:47:42;4.70;;;2.10;;
76752;SDS011;65687;51.308;16.916;2023-04-25T02:52:43;4.80;;;2.10;;
76752;SDS011;65687;51.308;16.916;2023-04-25T02:57:46;3.30;;;2.20;;
76752;SDS011;65687;51.308;16.916;2023-04-25T03:02:48;4.00;;;2.70;;
76752;SDS011;65687;51.308;16.916;2023-04-25T03:07:52;3.90;;;2.70;;
76752;SDS011;65687;51.308;16.916;2023-04-25T03:12:53;3.50;;;2.60;;
76752;SDS011;65687;51.308;16.916;2023-04-25T03:17:55;3.50;;;2.60;;
76752;SDS011;65687;51.308;16.916;2023-04-25T03:22:58;3.30;;;2.50;;
76752;SDS011;65687;51.308;16.916;2023-04-25T03:27:59;3.60;;;2.70;;
76752;SDS011;65687;51.308;16.916;2023-04-25T03:33:01;4.30;;;2.60;;
76752;SDS011;65687;51.308;16.916;2023-04-25T03:38:03;4.20;;;2.90;;
76752;SDS011;65687;51.308;16.916;2023-04-25T03:43:04;5.20;;;3.20;;
76752;SDS011;65687;51.308;16.916;2023-04-25T03:48:06;5.90;;;2.80;;
76752;SDS011;65687;51.308;16.916;2023-04-25T03:53:08;6.20;;;3.70;;
76752;SDS011;65687;51.308;16.916;2023-04-25T03:58:09;4.90;;;3.60;;
76752;SDS011;65687;51.308;16.916;2023-04-25T04:03:11;6.70;;;3.50;;
76752;SDS011;65687;51.308;16.916;2023-04-25T04:08:13;4.90;;;3.10;;
76752;SDS011;65687;51.308;16.916;2023-04-25T04:13:14;6.80;;;3.80;;
76752;SDS011;65687;51.308;16.916;2023-04-25T04:18:16;7.30;;;4.00;;
76752;SDS011;65687;51.308;16.916;2023-04-25T04:23:19;6.20;;;3.80;;
76752;SDS011;65687;51.308;16.916;2023-04-25T04:28:21;4.50;;;3.30;;
76752;SDS011;65687;51.308;16.916;2023-04-25T04:33:23;5.60;;;4.30;;
76752;SDS011;65687;51.308;16.916;2023-04-25T04:38:24;5.00;;;3.60;;
76752;SDS011;65687;51.308;16.916;2023-04-25T04:43:26;5.40;;;3.40;;
76752;SDS011;65687;51.308;16.916;2023-04-25T04:48:30;8.40;;;3.90;;
76752;SDS011;65687;51.308;16.916;2023-04-25T04:53:35;5.70;;;3.70;;
76752;SDS011;65687;51.308;16.916;2023-04-25T04:58:36;5.50;;;3.80;;
76752;SDS011;65687;51.308;16.916;2023-04-25T05:03:38;7.90;;;3.60;;
76752;SDS011;65687;51.308;16.916;2023-04-25T05:08:40;7.30;;;3.60;;
76752;SDS011;65687;51.308;16.916;2023-04-25T05:13:41;9.00;;;4.70;;
76752;SDS011;65687;51.308;16.916;2023-04-25T05:18:43;7.10;;;4.40;;
76752;SDS011;65687;51.308;16.916;2023-04-25T05:23:44;6.60;;;4.60;;
76752;SDS011;65687;51.308;16.916;2023-04-25T05:28:46;5.10;;;3.40;;
76752;SDS011;65687;51.308;16.916;2023-04-25T05:33:48;5.10;;;4.00;;
76752;SDS011;65687;51.308;16.916;2023-04-25T05:38:49;5.20;;;3.80;;
76752;SDS011;65687;51.308;16.916;2023-04-25T05:43:52;4.80;;;3.60;;
76752;SDS011;65687;51.308;16.916;2023-04-25T05:48:53;5.40;;;3.40;;
76752;SDS011;65687;51.308;16.916;2023-04-25T05:53:56;6.30;;;3.10;;
76752;SDS011;65687;51.308;16.916;2023-04-25T05:58:58;6.00;;;3.50;;
76752;SDS011;65687;51.308;16.916;2023-04-25T06:04:00;6.10;;;3.70;;
76752;SDS011;65687;51.308;16.916;2023-04-25T06:09:01;5.70;;;3.90;;
76752;SDS011;65687;51.308;16.916;2023-04-25T06:14:03;6.60;;;4.20;;
76752;SDS011;65687;51.308;16.916;2023-04-25T06:19:04;5.60;;;4.20;;
76752;SDS011;65687;51.308;16.916;2023-04-25T06:24:06;5.70;;;3.40;;
76752;SDS011;65687;51.308;16.916;2023-04-25T06:29:08;5.20;;;3.70;;
76752;SDS011;65687;51.308;16.916;2023-04-25T06:34:10;5.20;;;3.00;;
76752;SDS011;65687;51.308;16.916;2023-04-25T06:44:14;4.40;;;2.70;;
76752;SDS011;65687;51.308;16.916;2023-04-25T06:49:16;5.40;;;3.10;;
76752;SDS011;65687;51.308;16.916;2023-04-25T06:54:18;6.80;;;3.90;;
76752;SDS011;65687;51.308;16.916;2023-04-25T06:59:20;5.40;;;3.70;;
76752;SDS011;65687;51.308;16.916;2023-04-25T07:04:22;6.00;;;4.00;;
76752;SDS011;65687;51.308;16.916;2023-04-25T07:09:23;5.80;;;3.10;;
76752;SDS011;65687;51.308;16.916;2023-04-25T07:14:25;7.40;;;3.80;;
76752;SDS011;65687;51.308;16.916;2023-04-25T07:19:27;4.80;;;2.90;;
76752;SDS011;65687;51.308;16.916;2023-04-25T07:24:30;5.60;;;2.40;;
76752;SDS011;65687;51.308;16.916;2023-04-25T07:29:32;4.50;;;2.60;;
76752;SDS011;65687;51.308;16.916;2023-04-25T07:34:37;4.90;;;3.20;;
76752;SDS011;65687;51.308;16.916;2023-04-25T07:39:40;6.40;;;2.70;;
76752;SDS011;65687;51.308;16.916;2023-04-25T07:44:41;4.70;;;3.20;;
76752;SDS011;65687;51.308;16.916;2023-04-25T07:49:43;4.20;;;2.80;;
76752;SDS011;65687;51.308;16.916;2023-04-25T07:54:45;6.70;;;3.00;;
76752;SDS011;65687;51.308;16.916;2023-04-25T07:59:46;4.80;;;3.10;;
76752;SDS011;65687;51.308;16.916;2023-04-25T08:04:48;4.30;;;3.20;;
76752;SDS011;65687;51.308;16.916;2023-04-25T08:09:51;4.50;;;2.80;;
76752;SDS011;65687;51.308;16.916;2023-04-25T08:14:53;7.60;;;3.30;;
76752;SDS011;65687;51.308;16.916;2023-04-25T08:19:57;5.30;;;3.80;;
76752;SDS011;65687;51.308;16.916;2023-04-25T08:24:59;6.30;;;3.90;;
76752;SDS011;65687;51.308;16.916;2023-04-25T08:30:02;6.70;;;4.70;;
76752;SDS011;65687;51.308;16.916;2023-04-25T08:35:05;9.20;;;4.20;;
76752;SDS011;65687;51.308;16.916;2023-04-25T08:40:11;5.20;;;3.40;;
76752;SDS011;65687;51.308;16.916;2023-04-25T08:45:16;5.00;;;3.60;;
76752;SDS011;65687;51.308;16.916;2023-04-25T08:50:18;6.40;;;3.60;;
76752;SDS011;65687;51.308;16.916;2023-04-25T08:55:24;5.70;;;3.30;;
76752;SDS011;65687;51.308;16.916;2023-04-25T09:00:28;6.10;;;3.50;;
76752;SDS011;65687;51.308;16.916;2023-04-25T09:05:30;4.90;;;3.40;;
76752;SDS011;65687;51.308;16.916;2023-04-25T09:10:37;6.80;;;2.90;;
76752;SDS011;65687;51.308;16.916;2023-04-25T09:15:49;4.30;;;3.30;;
76752;SDS011;65687;51.308;16.916;2023-04-25T09:20:55;5.70;;;3.00;;
76752;SDS011;65687;51.308;16.916;2023-04-25T09:26:08;6.10;;;3.10;;
76752;SDS011;65687;51.308;16.916;2023-04-25T09:31:11;4.00;;;2.80;;
76752;SDS011;65687;51.308;16.916;2023-04-25T09:36:13;4.20;;;2.80;;
76752;SDS011;65687;51.308;16.916;2023-04-25T09:41:15;4.70;;;3.00;;
76752;SDS011;65687;51.308;16.916;2023-04-25T09:46:32;4.80;;;3.70;;
76752;SDS011;65687;51.308;16.916;2023-04-25T09:51:41;4.80;;;3.20;;
76752;SDS011;65687;51.308;16.916;2023-04-25T09:56:45;4.90;;;3.40;;
76752;SDS011;65687;51.308;16.916;2023-04-25T10:01:49;3.80;;;3.00;;
76752;SDS011;65687;51.308;16.916;2023-04-25T10:06:52;3.80;;;2.90;;
76752;SDS011;65687;51.308;16.916;2023-04-25T10:11:57;4.20;;;2.30;;
76752;SDS011;65687;51.308;16.916;2023-04-25T10:17:01;2.80;;;2.20;;
76752;SDS011;65687;51.308;16.916;2023-04-25T10:22:20;5.90;;;2.30;;
76752;SDS011;65687;51.308;16.916;2023-04-25T10:27:31;2.70;;;2.20;;
76752;SDS011;65687;51.308;16.916;2023-04-25T10:32:34;4.50;;;1.50;;
76752;SDS011;65687;51.308;16.916;2023-04-25T10:37:37;3.50;;;2.20;;
76752;SDS011;65687;51.308;16.916;2023-04-25T10:42:40;4.00;;;2.30;;
76752;SDS011;65687;51.308;16.916;2023-04-25T10:47:45;2.80;;;1.90;;
76752;SDS011;65687;51.308;16.916;2023-04-25T10:52:47;3.20;;;1.80;;
76752;SDS011;65687;51.308;16.916;2023-04-25T10:57:49;2.80;;;1.60;;
76752;SDS011;65687;51.308;16.916;2023-04-25T11:02:52;3.80;;;1.70;;
76752;SDS011;65687;51.308;16.916;2023-04-25T11:08:03;2.20;;;1.50;;
76752;SDS011;65687;51.308;16.916;2023-04-25T11:13:13;5.00;;;2.20;;
76752;SDS011;65687;51.308;16.916;2023-04-25T11:18:17;3.50;;;1.90;;
76752;SDS011;65687;51.308;16.916;2023-04-25T11:23:20;2.10;;;1.50;;
76752;SDS011;65687;51.308;16.916;2023-04-25T11:28:22;2.10;;;1.50;;
76752;SDS011;65687;51.308;16.916;2023-04-25T11:33:25;2.60;;;1.90;;
76752;SDS011;65687;51.308;16.916;2023-04-25T11:38:28;3.30;;;2.00;;
76752;SDS011;65687;51.308;16.916;2023-04-25T11:43:30;4.00;;;2.00;;
76752;SDS011;65687;51.308;16.916;2023-04-25T11:48:42;4.20;;;2.90;;
76752;SDS011;65687;51.308;16.916;2023-04-25T11:53:44;4.00;;;2.30;;
76752;SDS011;65687;51.308;16.916;2023-04-25T12:04:18;3.50;;;1.90;;
76752;SDS011;65687;51.308;16.916;2023-04-25T12:09:29;3.10;;;1.90;;
76752;SDS011;65687;51.308;16.916;2023-04-25T12:14:34;2.00;;;1.40;;
76752;SDS011;65687;51.308;16.916;2023-04-25T12:19:37;3.30;;;1.90;;
76752;SDS011;65687;51.308;16.916;2023-04-25T12:24:45;2.40;;;1.90;;
76752;SDS011;65687;51.308;16.916;2023-04-25T12:29:50;3.10;;;2.20;;
76752;SDS011;65687;51.308;16.916;2023-04-25T12:34:56;2.60;;;2.10;;
76752;SDS011;65687;51.308;16.916;2023-04-25T12:39:58;3.80;;;3.30;;
76752;SDS011;65687;51.308;16.916;2023-04-25T12:45:00;3.50;;;2.00;;
76752;SDS011;65687;51.308;16.916;2023-04-25T12:50:01;4.80;;;2.60;;
76752;SDS011;65687;51.308;16.916;2023-04-25T12:55:03;4.00;;;2.80;;
76752;SDS011;65687;51.308;16.916;2023-04-25T13:05:09;2.60;;;1.80;;
76752;SDS011;65687;51.308;16.916;2023-04-25T13:10:12;2.40;;;1.60;;
76752;SDS011;65687;51.308;16.916;2023-04-25T13:15:13;4.10;;;2.10;;
76752;SDS011;65687;51.308;16.916;2023-04-25T13:20:16;4.40;;;2.00;;
76752;SDS011;65687;51.308;16.916;2023-04-25T13:25:20;3.90;;;2.00;;
76752;SDS011;65687;51.308;16.916;2023-04-25T13:30:23;3.50;;;2.00;;
76752;SDS011;65687;51.308;16.916;2023-04-25T13:35:24;3.80;;;1.90;;
76752;SDS011;65687;51.308;16.916;2023-04-25T13:40:26;3.80;;;2.10;;
76752;SDS011;65687;51.308;16.916;2023-04-25T13:45:28;5.10;;;2.10;;
76752;SDS011;65687;51.308;16.916;2023-04-25T13:50:30;4.00;;;2.20;;
76752;SDS011;65687;51.308;16.916;2023-04-25T13:55:33;3.40;;;2.00;;
76752;SDS011;65687;51.308;16.916;2023-04-25T14:00:37;4.20;;;2.00;;
76752;SDS011;65687;51.308;16.916;2023-04-25T14:05:40;4.20;;;2.70;;
76752;SDS011;65687;51.308;16.916;2023-04-25T14:10:42;4.30;;;2.60;;
76752;SDS011;65687;51.308;16.916;2023-04-25T14:15:43;7.30;;;4.10;;
76752;SDS011;65687;51.308;16.916;2023-04-25T14:20:45;3.80;;;2.70;;
76752;SDS011;65687;51.308;16.916;2023-04-25T14:25:47;3.70;;;2.20;;
76752;SDS011;65687;51.308;16.916;2023-04-25T14:30:48;4.80;;;2.50;;
76752;SDS011;65687;51.308;16.916;2023-04-25T14:35:50;2.40;;;1.90;;
76752;SDS011;65687;51.308;16.916;2023-04-25T14:40:52;2.70;;;1.90;;
76752;SDS011;65687;51.308;16.916;2023-04-25T14:45:55;3.60;;;2.00;;
76752;SDS011;65687;51.308;16.916;2023-04-25T14:50:56;3.90;;;1.90;;
76752;SDS011;65687;51.308;16.916;2023-04-25T14:55:58;2.60;;;1.90;;
76752;SDS011;65687;51.308;16.916;2023-04-25T15:01:00;3.60;;;2.30;;
76752;SDS011;65687;51.308;16.916;2023-04-25T15:06:02;4.00;;;2.30;;
76752;SDS011;65687;51.308;16.916;2023-04-25T15:11:04;3.00;;;2.40;;
76752;SDS011;65687;51.308;16.916;2023-04-25T15:16:06;3.60;;;2.60;;
76752;SDS011;65687;51.308;16.916;2023-04-25T15:21:07;4.00;;;2.50;;
76752;SDS011;65687;51.308;16.916;2023-04-25T15:26:09;4.60;;;2.50;;
76752;SDS011;65687;51.308;16.916;2023-04-25T15:31:11;5.30;;;3.00;;
76752;SDS011;65687;51.308;16.916;2023-04-25T15:36:13;2.80;;;2.30;;
76752;SDS011;65687;51.308;16.916;2023-04-25T15:41:17;4.60;;;2.60;;
76752;SDS011;65687;51.308;16.916;2023-04-25T15:46:19;2.80;;;1.80;;
76752;SDS011;65687;51.308;16.916;2023-04-25T15:51:22;3.60;;;2.50;;
76752;SDS011;65687;51.308;16.916;2023-04-25T15:56:23;4.10;;;2.60;;
76752;SDS011;65687;51.308;16.916;2023-04-25T16:01:25;3.20;;;2.50;;
76752;SDS011;65687;51.308;16.916;2023-04-25T16:06:30;3.90;;;2.90;;
76752;SDS011;65687;51.308;16.916;2023-04-25T16:11:32;3.90;;;2.30;;
76752;SDS011;65687;51.308;16.916;2023-04-25T16:16:33;3.40;;;2.60;;
76752;SDS011;65687;51.308;16.916;2023-04-25T16:21:35;3.50;;;2.50;;
76752;SDS011;65687;51.308;16.916;2023-04-25T16:26:36;5.00;;;2.60;;
76752;SDS011;65687;51.308;16.916;2023-04-25T16:31:38;5.00;;;2.50;;
76752;SDS011;65687;51.308;16.916;2023-04-25T16:36:39;7.20;;;4.80;;
76752;SDS011;65687;51.308;16.916;2023-04-25T16:41:41;9.80;;;5.30;;
76752;SDS011;65687;51.308;16.916;2023-04-25T16:46:43;13.50;;;6.20;;
76752;SDS011;65687;51.308;16.916;2023-04-25T16:51:45;12.70;;;6.80;;
76752;SDS011;65687;51.308;16.916;2023-04-25T16:56:47;9.40;;;4.30;;
76752;SDS011;65687;51.308;16.916;2023-04-25T17:01:48;8.60;;;5.30;;
76752;SDS011;65687;51.308;16.916;2023-04-25T17:06:50;9.80;;;5.30;;
76752;SDS011;65687;51.308;16.916;2023-04-25T17:11:51;10.10;;;6.40;;
76752;SDS011;65687;51.308;16.916;2023-04-25T17:16:53;15.40;;;8.30;;
76752;SDS011;65687;51.308;16.916;2023-04-25T17:21:54;13.60;;;8.40;;
76752;SDS011;65687;51.308;16.916;2023-04-25T17:26:56;14.00;;;7.20;;
76752;SDS011;65687;51.308;16.916;2023-04-25T17:31:57;13.20;;;7.10;;
76752;SDS011;65687;51.308;16.916;2023-04-25T17:36:59;14.40;;;7.20;;
76752;SDS011;65687;51.308;16.916;2023-04-25T17:42:00;23.60;;;15.30;;
76752;SDS011;65687;51.308;16.916;2023-04-25T17:47:02;25.20;;;13.90;;
76752;SDS011;65687;51.308;16.916;2023-04-25T17:52:04;14.90;;;7.30;;
76752;SDS011;65687;51.308;16.916;2023-04-25T17:57:06;12.40;;;6.80;;
76752;SDS011;65687;51.308;16.916;2023-04-25T18:02:08;8.80;;;5.60;;
76752;SDS011;65687;51.308;16.916;2023-04-25T18:07:10;12.60;;;6.70;;
76752;SDS011;65687;51.308;16.916;2023-04-25T18:12:12;10.30;;;5.30;;
76752;SDS011;65687;51.308;16.916;2023-04-25T18:17:15;8.50;;;4.80;;
76752;SDS011;65687;51.308;16.916;2023-04-25T18:22:17;9.70;;;6.00;;
76752;SDS011;65687;51.308;16.916;2023-04-25T18:27:18;11.80;;;5.90;;
76752;SDS011;65687;51.308;16.916;2023-04-25T18:32:20;10.20;;;5.00;;
76752;SDS011;65687;51.308;16.916;2023-04-25T18:37:22;11.20;;;6.10;;
76752;SDS011;65687;51.308;16.916;2023-04-25T18:42:23;12.90;;;6.00;;
76752;SDS011;65687;51.308;16.916;2023-04-25T18:47:25;10.80;;;6.10;;
76752;SDS011;65687;51.308;16.916;2023-04-25T18:52:26;14.20;;;5.90;;
76752;SDS011;65687;51.308;16.916;2023-04-25T18:57:28;12.60;;;6.70;;
76752;SDS011;65687;51.308;16.916;2023-04-25T19:02:30;14.20;;;7.30;;
76752;SDS011;65687;51.308;16.916;2023-04-25T19:07:31;12.30;;;6.40;;
76752;SDS011;65687;51.308;16.916;2023-04-25T19:12:33;12.80;;;8.10;;
76752;SDS011;65687;51.308;16.916;2023-04-25T19:17:34;9.00;;;6.20;;
76752;SDS011;65687;51.308;16.916;2023-04-25T19:22:36;11.50;;;8.00;;
76752;SDS011;65687;51.308;16.916;2023-04-25T19:27:37;7.80;;;4.90;;
76752;SDS011;65687;51.308;16.916;2023-04-25T19:32:39;11.00;;;7.00;;
76752;SDS011;65687;51.308;16.916;2023-04-25T19:37:41;13.20;;;6.90;;
76752;SDS011;65687;51.308;16.916;2023-04-25T19:42:46;10.80;;;6.10;;
76752;SDS011;65687;51.308;16.916;2023-04-25T19:47:47;16.60;;;9.90;;
76752;SDS011;65687;51.308;16.916;2023-04-25T19:52:49;14.20;;;9.20;;
76752;SDS011;65687;51.308;16.916;2023-04-25T19:57:52;13.40;;;6.70;;
76752;SDS011;65687;51.308;16.916;2023-04-25T20:02:53;7.90;;;4.20;;
76752;SDS011;65687;51.308;16.916;2023-04-25T20:07:55;5.30;;;3.70;;
76752;SDS011;65687;51.308;16.916;2023-04-25T20:12:57;10.00;;;4.20;;
76752;SDS011;65687;51.308;16.916;2023-04-25T20:17:58;9.60;;;4.90;;
76752;SDS011;65687;51.308;16.916;2023-04-25T20:23:00;21.10;;;7.40;;
76752;SDS011;65687;51.308;16.916;2023-04-25T20:28:01;21.20;;;6.10;;
76752;SDS011;65687;51.308;16.916;2023-04-25T20:33:03;10.70;;;3.80;;
76752;SDS011;65687;51.308;16.916;2023-04-25T20:38:07;12.70;;;3.90;;
76752;SDS011;65687;51.308;16.916;2023-04-25T20:43:08;7.00;;;3.40;;
76752;SDS011;65687;51.308;16.916;2023-04-25T20:48:11;6.90;;;3.80;;
76752;SDS011;65687;51.308;16.916;2023-04-25T20:53:13;12.00;;;5.20;;
76752;SDS011;65687;51.308;16.916;2023-04-25T20:58:15;11.10;;;4.90;;
76752;SDS011;65687;51.308;16.916;2023-04-25T21:03:17;11.40;;;4.50;;
76752;SDS011;65687;51.308;16.916;2023-04-25T21:08:18;8.90;;;3.60;;
76752;SDS011;65687;51.308;16.916;2023-04-25T21:13:20;9.70;;;4.40;;
76752;SDS011;65687;51.308;16.916;2023-04-25T21:18:21;10.00;;;3.60;;
76752;SDS011;65687;51.308;16.916;2023-04-25T21:23:23;11.60;;;3.90;;
76752;SDS011;65687;51.308;16.916;2023-04-25T21:28:24;9.10;;;3.60;;
76752;SDS011;65687;51.308;16.916;2023-04-25T21:33:26;13.80;;;4.60;;
76752;SDS011;65687;51.308;16.916;2023-04-25T21:38:27;9.90;;;4.50;;
76752;SDS011;65687;51.308;16.916;2023-04-25T21:43:29;9.00;;;4.40;;
76752;SDS011;65687;51.308;16.916;2023-04-25T21:48:31;8.30;;;4.30;;
76752;SDS011;65687;51.308;16.916;2023-04-25T21:53:32;9.70;;;3.30;;
76752;SDS011;65687;51.308;16.916;2023-04-25T21:58:34;7.20;;;3.50;;
76752;SDS011;65687;51.308;16.916;2023-04-25T22:03:36;8.00;;;3.60;;
76752;SDS011;65687;51.308;16.916;2023-04-25T22:08:38;9.60;;;4.20;;
76752;SDS011;65687;51.308;16.916;2023-04-25T22:13:39;6.90;;;3.10;;
76752;SDS011;65687;51.308;16.916;2023-04-25T22:18:41;8.90;;;4.90;;
76752;SDS011;65687;51.308;16.916;2023-04-25T22:23:45;11.10;;;4.50;;
76752;SDS011;65687;51.308;16.916;2023-04-25T22:28:47;11.00;;;4.60;;
76752;SDS011;65687;51.308;16.916;2023-04-25T22:33:48;10.30;;;4.30;;
76752;SDS011;65687;51.308;16.916;2023-04-25T22:38:50;13.30;;;6.80;;
76752;SDS011;65687;51.308;16.916;2023-04-25T22:43:52;11.70;;;4.00;;
76752;SDS011;65687;51.308;16.916;2023-04-25T22:48:54;7.20;;;3.30;;
76752;SDS011;65687;51.308;16.916;2023-04-25T22:53:56;8.30;;;4.40;;
76752;SDS011;65687;51.308;16.916;2023-04-25T22:58:57;9.70;;;4.70;;
76752;SDS011;65687;51.308;16.916;2023-04-25T23:03:59;7.40;;;3.70;;
76752;SDS011;65687;51.308;16.916;2023-04-25T23:09:00;8.10;;;3.90;;
76752;SDS011;65687;51.308;16.916;2023-04-25T23:14:02;9.80;;;4.80;;
76752;SDS011;65687;51.308;16.916;2023-04-25T23:19:03;8.10;;;4.00;;
76752;SDS011;65687;51.308;16.916;2023-04-25T23:24:05;6.70;;;3.30;;
76752;SDS011;65687;51.308;16.916;2023-04-25T23:29:07;6.60;;;3.50;;
76752;SDS011;65687;51.308;16.916;2023-04-25T23:34:08;7.30;;;3.30;;
76752;SDS011;65687;51.308;16.916;2023-04-25T23:39:10;7.10;;;3.40;;
76752;SDS011;65687;51.308;16.916;2023-04-25T23:44:13;8.10;;;3.10;;
76752;SDS011;65687;51.308;16.916;2023-04-25T23:49:14;10.40;;;3.70;;
76752;SDS011;65687;51.308;16.916;2023-04-25T23:54:16;7.90;;;3.80;;
76752;SDS011;65687;51.308;16.916;2023-04-25T23:59:17;7.00;;;3.60;;
